createdAt,value
2019-05-30T00:00:55.803Z,1.50
2019-05-30T00:03:25.450Z,1.43
2019-05-30T00:05:56.215Z,1.70
2019-05-30T00:08:25.756Z,1.40
2019-05-30T00:10:56.411Z,1.23
2019-05-30T00:13:26.209Z,1.47
2019-05-30T00:15:58.391Z,1.63
2019-05-30T00:18:28.390Z,1.87
2019-05-30T00:20:58.732Z,1.87
2019-05-30T00:23:28.379Z,1.73
2019-05-30T00:25:59.059Z,1.97
2019-05-30T00:28:28.803Z,1.40
2019-05-30T00:30:58.354Z,1.40
2019-05-30T00:33:27.941Z,1.60
2019-05-30T00:35:57.647Z,1.50
2019-05-30T00:38:27.332Z,1.80
2019-05-30T00:40:57.829Z,1.90
2019-05-30T00:43:27.502Z,1.80
2019-05-30T00:45:57.934Z,1.40
2019-05-30T00:48:27.966Z,1.77
2019-05-30T00:50:58.321Z,1.70
2019-05-30T00:53:27.903Z,1.93
2019-05-30T00:55:58.476Z,1.70
2019-05-30T00:58:28.291Z,1.40
2019-05-30T01:00:59.041Z,1.90
2019-05-30T01:03:28.783Z,1.60
2019-05-30T01:05:58.698Z,1.67
2019-05-30T01:08:28.197Z,1.40
2019-05-30T01:10:58.876Z,2.00
2019-05-30T01:13:29.493Z,1.70
2019-05-30T01:15:59.004Z,1.60
2019-05-30T01:18:28.461Z,1.90
2019-05-30T01:20:59.105Z,1.93
2019-05-30T01:23:28.762Z,1.67
2019-05-30T01:25:59.346Z,1.90
2019-05-30T01:28:28.981Z,1.60
2019-05-30T01:31:03.010Z,1.60
2019-05-30T01:33:29.728Z,2.13
2019-05-30T01:35:59.643Z,2.00
2019-05-30T01:38:29.346Z,2.00
2019-05-30T01:40:59.667Z,1.77
2019-05-30T01:43:29.323Z,1.90
2019-05-30T01:45:59.961Z,1.83
2019-05-30T01:48:30.082Z,2.00
2019-05-30T01:51:00.311Z,1.97
2019-05-30T01:53:31.007Z,2.00
2019-05-30T01:56:00.780Z,1.97
2019-05-30T01:58:30.313Z,1.50
2019-05-30T02:01:14.376Z,2.10
2019-05-30T02:03:31.026Z,1.83
2019-05-30T02:06:01.026Z,1.47
2019-05-30T02:08:30.680Z,1.73
2019-05-30T02:11:01.221Z,1.70
2019-05-30T02:13:30.930Z,1.77
2019-05-30T02:16:01.479Z,2.13
2019-05-30T02:18:31.155Z,2.07
2019-05-30T02:21:02.113Z,1.60
2019-05-30T02:23:31.684Z,2.00
2019-05-30T02:26:02.228Z,1.80
2019-05-30T02:28:31.755Z,1.83
2019-05-30T02:31:02.968Z,1.50
2019-05-30T02:33:32.362Z,1.80
2019-05-30T02:36:04.077Z,1.90
2019-05-30T02:38:32.938Z,2.00
2019-05-30T02:41:03.316Z,1.87
2019-05-30T02:43:33.760Z,1.80
2019-05-30T02:46:03.564Z,1.70
2019-05-30T02:48:34.472Z,1.93
2019-05-30T02:51:05.607Z,1.60
2019-05-30T02:53:35.469Z,1.90
2019-05-30T02:56:05.977Z,1.93
2019-05-30T02:58:36.211Z,2.10
2019-05-30T03:01:07.027Z,1.63
2019-05-30T03:03:36.770Z,1.83
2019-05-30T03:06:08.622Z,1.50
2019-05-30T03:08:37.655Z,1.63
2019-05-30T03:11:09.975Z,1.47
2019-05-30T03:13:39.453Z,1.53
2019-05-30T03:16:11.828Z,2.10
2019-05-30T03:18:41.168Z,2.00
2019-05-30T03:21:14.813Z,1.73
2019-05-30T03:23:41.906Z,2.00
2019-05-30T03:26:13.739Z,1.90
2019-05-30T03:28:42.564Z,1.77
2019-05-30T03:31:22.995Z,1.87
2019-05-30T03:33:43.731Z,1.70
2019-05-30T03:36:26.449Z,1.67
2019-05-30T03:38:44.523Z,1.60
2019-05-30T03:41:15.134Z,1.70
2019-05-30T03:43:44.750Z,2.00
2019-05-30T03:46:17.250Z,1.60
2019-05-30T03:48:49.804Z,1.63
2019-05-30T03:51:20.651Z,1.93
2019-05-30T03:53:51.833Z,1.90
2019-05-30T03:56:25.367Z,1.60
2019-05-30T03:58:57.892Z,1.70
2019-05-30T04:01:30.963Z,2.20
2019-05-30T04:04:03.634Z,2.10
2019-05-30T04:06:39.500Z,1.63
2019-05-30T04:09:15.003Z,1.83
2019-05-30T04:11:46.259Z,2.43
2019-05-30T04:14:19.352Z,1.70
2019-05-30T04:16:50.055Z,1.93
2019-05-30T04:19:20.167Z,2.00
2019-05-30T04:21:49.982Z,2.37
2019-05-30T04:24:19.821Z,1.97
2019-05-30T04:26:49.352Z,2.40
2019-05-30T04:29:19.068Z,2.00
2019-05-30T04:31:48.603Z,1.87
2019-05-30T04:34:19.535Z,2.23
2019-05-30T04:36:53.211Z,2.07
2019-05-30T04:39:20.721Z,2.20
2019-05-30T04:41:50.185Z,1.67
2019-05-30T04:44:20.360Z,1.83
2019-05-30T04:46:50.142Z,2.03
2019-05-30T04:49:21.514Z,2.00
2019-05-30T04:51:50.911Z,1.80
2019-05-30T04:54:21.606Z,2.23
2019-05-30T04:56:51.440Z,1.90
2019-05-30T04:59:21.946Z,2.40
2019-05-30T05:01:51.821Z,2.13
2019-05-30T05:04:21.780Z,2.17
2019-05-30T05:06:51.503Z,2.20
2019-05-30T05:09:22.374Z,2.17
2019-05-30T05:11:52.167Z,1.93
2019-05-30T05:14:22.731Z,2.10
2019-05-30T05:16:53.502Z,1.83
2019-05-30T05:19:25.676Z,2.43
2019-05-30T05:21:54.103Z,1.90
2019-05-30T05:24:23.866Z,2.43
2019-05-30T05:26:53.420Z,2.00
2019-05-30T05:29:24.091Z,2.30
2019-05-30T05:31:54.757Z,2.20
2019-05-30T05:34:24.842Z,2.30
2019-05-30T05:36:54.475Z,2.23
2019-05-30T05:39:24.209Z,2.10
2019-05-30T05:41:53.820Z,2.40
2019-05-30T05:44:24.452Z,2.00
2019-05-30T05:46:54.175Z,2.40
2019-05-30T05:49:24.920Z,2.37
2019-05-30T05:51:54.546Z,2.30
2019-05-30T05:54:24.991Z,2.73
2019-05-30T05:56:54.694Z,2.00
2019-05-30T05:59:25.201Z,2.60
2019-05-30T06:01:54.815Z,2.37
2019-05-30T06:04:25.255Z,2.13
2019-05-30T06:06:55.838Z,2.60
2019-05-30T06:09:25.312Z,2.43
2019-05-30T06:11:54.839Z,2.27
2019-05-30T06:14:24.535Z,2.57
2019-05-30T06:16:55.860Z,2.87
2019-05-30T06:19:25.375Z,2.37
2019-05-30T06:21:54.916Z,2.03
2019-05-30T06:24:25.627Z,2.00
2019-05-30T06:26:56.342Z,2.27
2019-05-30T06:29:26.268Z,2.57
2019-05-30T06:31:55.933Z,2.53
2019-05-30T06:34:32.556Z,2.20
2019-05-30T06:36:56.515Z,2.33
2019-05-30T06:39:26.085Z,2.20
2019-05-30T06:41:55.591Z,2.30
2019-05-30T06:44:26.023Z,2.57
2019-05-30T06:46:56.966Z,2.93
2019-05-30T06:49:26.772Z,2.20
2019-05-30T06:51:56.494Z,2.17
2019-05-30T06:54:27.735Z,3.20
2019-05-30T06:56:57.344Z,2.50
2019-05-30T06:59:27.655Z,2.43
2019-05-30T07:01:57.265Z,2.50
2019-05-30T07:04:27.711Z,2.90
2019-05-30T07:06:58.152Z,2.53
2019-05-30T07:09:29.159Z,2.43
2019-05-30T07:11:58.702Z,3.20
2019-05-30T07:14:29.244Z,2.57
2019-05-30T07:16:58.898Z,2.70
2019-05-30T07:19:29.482Z,2.53
2019-05-30T07:21:59.113Z,2.70
2019-05-30T07:24:29.748Z,2.47
2019-05-30T07:26:59.405Z,3.30
2019-05-30T07:29:29.924Z,2.57
2019-05-30T07:31:59.549Z,2.70
2019-05-30T07:34:30.084Z,2.70
2019-05-30T07:36:59.783Z,2.73
2019-05-30T07:39:32.772Z,2.58
2019-05-30T07:42:06.095Z,3.13
2019-05-30T07:44:32.795Z,3.25
2019-05-30T07:47:02.311Z,2.40
2019-05-30T07:49:32.436Z,3.27
2019-05-30T07:52:01.950Z,2.85
2019-05-30T07:54:33.075Z,2.83
2019-05-30T07:57:03.863Z,3.10
2019-05-30T07:59:34.699Z,2.83
2019-05-30T08:02:04.538Z,3.20
2019-05-30T08:04:34.172Z,3.27
2019-05-30T08:07:03.971Z,2.92
2019-05-30T08:09:33.444Z,3.10
2019-05-30T08:12:02.985Z,3.20
2019-05-30T08:14:33.298Z,2.92
2019-05-30T08:17:02.981Z,2.95
2019-05-30T08:19:33.092Z,2.90
2019-05-30T08:22:03.825Z,3.20
2019-05-30T08:24:34.387Z,4.75
2019-05-30T08:27:04.183Z,3.13
2019-05-30T08:29:34.372Z,3.42
2019-05-30T08:32:04.080Z,3.22
2019-05-30T08:34:34.617Z,3.77
2019-05-30T08:37:04.620Z,3.10
2019-05-30T08:39:35.255Z,2.90
2019-05-30T08:42:04.965Z,3.67
2019-05-30T08:44:34.375Z,3.58
2019-05-30T08:47:03.843Z,3.22
2019-05-30T08:49:34.038Z,2.93
2019-05-30T08:52:03.734Z,2.80
2019-05-30T08:54:34.293Z,3.30
2019-05-30T08:57:04.084Z,3.33
2019-05-30T08:59:34.459Z,2.97
2019-05-30T09:02:04.209Z,2.80
2019-05-30T09:04:33.796Z,3.12
2019-05-30T09:07:03.333Z,2.77
2019-05-30T09:09:32.853Z,3.20
2019-05-30T09:12:02.293Z,2.70
2019-05-30T09:14:31.705Z,2.40
2019-05-30T09:17:01.121Z,3.05
2019-05-30T09:19:30.670Z,2.95
2019-05-30T09:22:00.075Z,2.85
2019-05-30T09:24:29.562Z,2.37
2019-05-30T09:26:59.110Z,2.80
2019-05-30T09:29:28.516Z,2.47
2019-05-30T09:31:58.093Z,2.20
2019-05-30T09:34:27.630Z,2.15
2019-05-30T09:36:57.147Z,2.27
2019-05-30T09:39:29.618Z,2.27
2019-05-30T09:41:57.841Z,2.70
2019-05-30T09:44:27.294Z,2.30
2019-05-30T09:46:56.739Z,2.30
2019-05-30T09:49:26.201Z,2.50
2019-05-30T09:51:55.790Z,2.62
2019-05-30T09:54:25.205Z,2.30
2019-05-30T09:56:57.238Z,2.52
2019-05-30T09:59:26.136Z,2.27
2019-05-30T10:01:55.574Z,2.27
2019-05-30T10:04:25.140Z,2.20
2019-05-30T10:06:54.607Z,2.60
2019-05-30T10:09:25.214Z,2.40
2019-05-30T10:11:55.535Z,2.20
2019-05-30T10:14:25.126Z,2.20
2019-05-30T10:16:56.468Z,2.33
2019-05-30T10:19:25.733Z,1.75
2019-05-30T10:21:55.328Z,2.00
2019-05-30T10:24:24.785Z,1.92
2019-05-30T10:26:54.177Z,2.35
2019-05-30T10:29:23.652Z,2.10
2019-05-30T10:31:53.247Z,2.05
2019-05-30T10:34:22.717Z,2.65
2019-05-30T10:36:52.181Z,2.17
2019-05-30T10:39:21.742Z,2.35
2019-05-30T10:41:51.341Z,2.40
2019-05-30T10:44:20.807Z,2.70
2019-05-30T10:46:51.005Z,2.42
2019-05-30T10:49:33.792Z,2.00
2019-05-30T10:51:57.148Z,2.08
2019-05-30T10:54:23.517Z,1.90
2019-05-30T10:56:53.629Z,2.30
2019-05-30T10:59:23.443Z,2.37
2019-05-30T11:01:53.140Z,2.20
2019-05-30T11:04:22.918Z,2.20
2019-05-30T11:07:10.155Z,2.42
2019-05-30T11:09:29.719Z,2.67
2019-05-30T11:11:59.180Z,2.72
2019-05-30T11:14:28.641Z,2.45
2019-05-30T11:16:58.044Z,2.70
2019-05-30T11:19:27.642Z,2.98
2019-05-30T11:21:58.188Z,2.65
2019-05-30T11:24:27.794Z,2.20
2019-05-30T11:26:57.344Z,3.27
2019-05-30T11:29:26.818Z,2.42
2019-05-30T11:31:56.982Z,2.90
2019-05-30T11:34:26.705Z,2.27
2019-05-30T11:36:57.169Z,2.62
2019-05-30T11:39:26.730Z,2.60
2019-05-30T11:41:57.577Z,2.37
2019-05-30T11:44:27.187Z,2.50
2019-05-30T11:46:57.680Z,2.25
2019-05-30T11:49:27.379Z,2.60
2019-05-30T11:51:57.903Z,2.42
2019-05-30T11:54:27.459Z,2.02
2019-05-30T11:56:58.078Z,2.15
2019-05-30T11:59:27.612Z,2.08
2019-05-30T12:01:58.376Z,2.45
2019-05-30T12:04:27.871Z,2.20
2019-05-30T12:06:57.462Z,2.42
2019-05-30T12:09:27.015Z,2.80
2019-05-30T12:11:57.409Z,2.27
2019-05-30T12:14:27.072Z,2.30
2019-05-30T12:16:57.345Z,2.30
2019-05-30T12:19:27.056Z,2.22
2019-05-30T12:21:57.478Z,2.22
2019-05-30T12:24:27.347Z,2.30
2019-05-30T12:26:58.012Z,2.15
2019-05-30T12:29:27.626Z,2.37
2019-05-30T12:31:59.957Z,2.40
2019-05-30T12:34:29.387Z,1.90
2019-05-30T12:36:58.861Z,2.15
2019-05-30T12:39:28.439Z,1.70
2019-05-30T12:41:58.947Z,2.30
2019-05-30T12:44:29.729Z,1.85
2019-05-30T12:46:59.268Z,1.98
2019-05-30T12:49:28.723Z,1.80
2019-05-30T12:52:00.584Z,1.95
2019-05-30T12:54:30.384Z,2.65
2019-05-30T12:57:00.644Z,1.52
2019-05-30T12:59:30.317Z,1.90
2019-05-30T13:02:01.116Z,1.80
2019-05-30T13:04:31.895Z,1.85
2019-05-30T13:07:01.562Z,2.22
2019-05-30T13:09:31.224Z,2.10
2019-05-30T13:12:00.823Z,1.50
2019-05-30T13:14:30.410Z,2.30
2019-05-30T13:17:00.020Z,2.10
2019-05-30T13:19:29.568Z,1.72
2019-05-30T13:21:59.282Z,2.05
2019-05-30T13:24:28.772Z,1.60
2019-05-30T13:26:59.595Z,1.70
2019-05-30T13:29:29.329Z,1.85
2019-05-30T13:31:58.689Z,1.77
2019-05-30T13:34:28.267Z,1.60
2019-05-30T13:36:58.814Z,1.35
2019-05-30T13:39:28.430Z,1.65
2019-05-30T13:41:57.922Z,1.72
2019-05-30T13:44:27.391Z,1.72
2019-05-30T13:46:58.310Z,1.60
2019-05-30T13:49:28.028Z,1.77
2019-05-30T13:51:58.780Z,1.62
2019-05-30T13:54:28.562Z,2.00
2019-05-30T13:56:59.339Z,1.60
2019-05-30T13:59:30.010Z,1.72
2019-05-30T14:01:59.906Z,1.65
2019-05-30T14:04:30.652Z,1.40
2019-05-30T14:07:00.121Z,1.47
2019-05-30T14:09:29.800Z,1.72
2019-05-30T14:12:00.398Z,1.65
2019-05-30T14:14:29.978Z,1.57
2019-05-30T14:17:00.740Z,1.50
2019-05-30T14:19:30.568Z,1.55
2019-05-30T14:22:01.199Z,1.47
2019-05-30T14:24:32.958Z,1.40
2019-05-30T14:27:03.444Z,1.42
2019-05-30T14:29:33.038Z,1.65
2019-05-30T14:32:03.802Z,1.75
2019-05-30T14:34:33.557Z,1.70
2019-05-30T14:37:04.803Z,1.32
2019-05-30T14:39:34.328Z,1.60
2019-05-30T14:42:04.974Z,1.65
2019-05-30T14:44:34.635Z,1.75
2019-05-30T14:47:04.298Z,1.70
2019-05-30T14:49:33.858Z,1.52
2019-05-30T14:52:04.543Z,1.30
2019-05-30T14:54:34.088Z,1.35
2019-05-30T14:57:04.712Z,1.42
2019-05-30T14:59:34.341Z,1.25
2019-05-30T15:02:04.985Z,1.60
2019-05-30T15:04:34.682Z,1.32
2019-05-30T15:07:05.315Z,1.50
2019-05-30T15:09:34.897Z,1.40
2019-05-30T15:12:04.504Z,1.20
2019-05-30T15:14:33.928Z,1.25
2019-05-30T15:17:03.411Z,1.45
2019-05-30T15:19:32.953Z,1.47
2019-05-30T15:22:02.488Z,1.40
2019-05-30T15:24:32.119Z,1.25
2019-05-30T15:27:01.664Z,1.30
2019-05-30T15:29:31.098Z,1.70
2019-05-30T15:32:00.640Z,1.47
2019-05-30T15:34:30.117Z,1.45
2019-05-30T15:36:59.711Z,1.27
2019-05-30T15:39:32.837Z,1.37
2019-05-30T15:42:00.212Z,1.50
2019-05-30T15:44:29.601Z,1.17
2019-05-30T15:46:59.123Z,1.37
2019-05-30T15:49:28.578Z,1.37
2019-05-30T15:51:58.087Z,1.30
2019-05-30T15:54:27.614Z,1.30
2019-05-30T15:56:57.016Z,1.57
2019-05-30T15:59:26.559Z,1.47
2019-05-30T16:01:56.116Z,1.20
2019-05-30T16:04:25.611Z,1.27
2019-05-30T16:06:55.068Z,1.50
2019-05-30T16:09:24.523Z,1.47
2019-05-30T16:11:53.979Z,1.00
2019-05-30T16:14:23.462Z,1.50
2019-05-30T16:16:53.073Z,1.70
2019-05-30T16:19:26.343Z,1.45
2019-05-30T16:21:53.899Z,1.32
2019-05-30T16:24:23.350Z,1.50
2019-05-30T16:26:52.742Z,1.82
2019-05-30T16:29:22.194Z,1.15
2019-05-30T16:31:51.645Z,1.40
2019-05-30T16:34:22.224Z,1.40
2019-05-30T16:36:51.807Z,1.50
2019-05-30T16:39:22.495Z,1.47
2019-05-30T16:41:52.190Z,1.32
2019-05-30T16:44:22.564Z,1.55
2019-05-30T16:46:52.104Z,1.15
2019-05-30T16:49:22.836Z,1.52
2019-05-30T16:51:52.544Z,1.10
2019-05-30T16:54:23.195Z,1.40
2019-05-30T16:56:52.990Z,1.60
2019-05-30T16:59:22.828Z,1.52
2019-05-30T17:01:57.870Z,1.50
2019-05-30T17:04:23.569Z,1.20
2019-05-30T17:06:53.011Z,1.65
2019-05-30T17:09:23.495Z,1.50
2019-05-30T17:11:53.123Z,1.20
2019-05-30T17:14:23.987Z,1.60
2019-05-30T17:16:53.591Z,1.47
2019-05-30T17:19:24.413Z,1.30
2019-05-30T17:21:55.289Z,1.50
2019-05-30T17:24:25.242Z,1.17
2019-05-30T17:26:55.946Z,1.30
2019-05-30T17:29:25.770Z,1.50
2019-05-30T17:31:55.312Z,1.17
2019-05-30T17:34:26.020Z,1.52
2019-05-30T17:36:55.710Z,1.50
2019-05-30T17:39:25.220Z,1.45
2019-05-30T17:41:54.636Z,1.70
2019-05-30T17:44:25.160Z,2.10
2019-05-30T17:46:54.660Z,1.57
2019-05-30T17:49:24.199Z,2.00
2019-05-30T17:51:53.655Z,1.90
2019-05-30T17:54:23.814Z,1.92
2019-05-30T17:56:53.389Z,2.00
2019-05-30T17:59:24.257Z,1.62
2019-05-30T18:01:53.786Z,1.92
2019-05-30T18:04:24.467Z,1.90
2019-05-30T18:06:55.443Z,1.70
2019-05-30T18:09:24.916Z,2.40
2019-05-30T18:11:54.380Z,1.92
2019-05-30T18:14:25.003Z,2.27
2019-05-30T18:16:54.531Z,2.15
2019-05-30T18:19:25.177Z,2.33
2019-05-30T18:21:56.508Z,2.55
2019-05-30T18:24:26.082Z,2.35
2019-05-30T18:26:55.822Z,3.55
2019-05-30T18:29:26.062Z,2.30
2019-05-30T18:31:55.757Z,2.05
2019-05-30T18:34:26.247Z,2.05
2019-05-30T18:36:55.752Z,2.58
2019-05-30T18:39:26.503Z,2.17
2019-05-30T18:41:56.357Z,2.12
2019-05-30T18:44:28.821Z,2.30
2019-05-30T18:46:57.312Z,2.62
2019-05-30T18:49:27.162Z,2.57
2019-05-30T18:51:56.886Z,2.37
2019-05-30T18:54:26.602Z,2.35
2019-05-30T18:56:56.321Z,2.53
2019-05-30T18:59:26.848Z,2.20
2019-05-30T19:01:56.749Z,2.70
2019-05-30T19:04:27.462Z,2.72
2019-05-30T19:07:03.616Z,2.25
2019-05-30T19:09:33.522Z,2.45
2019-05-30T19:12:03.318Z,2.40
2019-05-30T19:14:34.561Z,2.60
2019-05-30T19:17:04.162Z,2.50
2019-05-30T19:19:33.893Z,2.42
2019-05-30T19:22:03.476Z,2.85
2019-05-30T19:24:34.167Z,2.92
2019-05-30T19:27:03.827Z,3.30
2019-05-30T19:29:35.023Z,2.80
2019-05-30T19:32:04.546Z,3.20
2019-05-30T19:34:34.950Z,2.50
2019-05-30T19:37:04.610Z,3.50
2019-05-30T19:39:35.620Z,12.18
2019-05-30T19:42:05.210Z,5.40
2019-05-30T19:44:38.370Z,5.50
2019-05-30T19:47:05.874Z,4.70
2019-05-30T19:49:36.800Z,4.70
2019-05-30T19:52:06.540Z,3.70
2019-05-30T19:54:37.156Z,3.35
2019-05-30T19:57:06.825Z,3.42
2019-05-30T19:59:36.396Z,3.50
2019-05-30T20:02:05.915Z,3.70
2019-05-30T20:04:38.243Z,3.70
2019-05-30T20:07:08.349Z,3.45
2019-05-30T20:09:38.637Z,2.95
2019-05-30T20:12:09.155Z,3.58
2019-05-30T20:14:39.234Z,3.15
2019-05-30T20:17:08.863Z,3.52
2019-05-30T20:19:38.404Z,3.27
2019-05-30T20:22:08.026Z,3.60
2019-05-30T20:24:38.299Z,3.35
2019-05-30T20:27:08.051Z,3.20
2019-05-30T20:29:37.530Z,3.40
2019-05-30T20:32:07.012Z,2.95
2019-05-30T20:34:36.758Z,2.83
2019-05-30T20:37:06.339Z,3.50
2019-05-30T20:39:36.611Z,3.65
2019-05-30T20:42:18.781Z,3.30
2019-05-30T20:44:38.837Z,3.20
2019-05-30T20:47:08.560Z,3.20
2019-05-30T20:49:39.089Z,3.77
2019-05-30T20:52:08.773Z,3.40
2019-05-30T20:54:39.246Z,3.93
2019-05-30T20:57:10.121Z,3.55
2019-05-30T20:59:40.616Z,4.00
2019-05-30T21:02:10.288Z,3.60
2019-05-30T21:04:40.844Z,3.85
2019-05-30T21:07:11.533Z,3.60
2019-05-30T21:09:42.120Z,3.80
2019-05-30T21:12:13.892Z,3.77
2019-05-30T21:14:46.364Z,3.77
2019-05-30T21:17:17.145Z,4.15
2019-05-30T21:19:46.680Z,3.95
2019-05-30T21:22:16.266Z,3.70
2019-05-30T21:24:46.716Z,3.85
2019-05-30T21:27:16.433Z,3.70
2019-05-30T21:29:45.901Z,3.93
2019-05-30T21:32:15.587Z,3.98
2019-05-30T21:34:46.477Z,3.60
2019-05-30T21:37:16.291Z,3.87
2019-05-30T21:39:46.122Z,4.10
2019-05-30T21:42:16.565Z,3.80
2019-05-30T21:44:50.927Z,4.33
2019-05-30T21:47:18.047Z,4.22
2019-05-30T21:49:49.207Z,3.97
2019-05-30T21:52:18.874Z,4.27
2019-05-30T21:54:48.280Z,4.13
2019-05-30T21:57:17.774Z,3.80
2019-05-30T21:59:48.694Z,5.47
2019-05-30T22:02:18.522Z,11.90
2019-05-30T22:04:48.646Z,7.13
2019-05-30T22:07:19.512Z,7.87
2019-05-30T22:09:49.418Z,9.63
2019-05-30T22:12:18.965Z,7.33
2019-05-30T22:14:48.434Z,6.70
2019-05-30T22:17:17.894Z,5.80
2019-05-30T22:19:47.867Z,6.00
2019-05-30T22:22:17.546Z,5.50
2019-05-30T22:24:48.376Z,4.00
2019-05-30T22:27:18.060Z,4.30
2019-05-30T22:29:48.520Z,4.37
2019-05-30T22:32:18.332Z,4.60
2019-05-30T22:34:48.766Z,4.10
2019-05-30T22:37:18.495Z,4.43
2019-05-30T22:39:48.921Z,4.07
2019-05-30T22:42:18.503Z,4.47
2019-05-30T22:44:48.058Z,4.63
2019-05-30T22:47:17.490Z,6.10
2019-05-30T22:49:46.969Z,5.13
2019-05-30T22:52:17.448Z,5.73
2019-05-30T22:54:47.267Z,5.87
2019-05-30T22:57:24.834Z,4.37
2019-05-30T23:00:00.656Z,4.00
2019-05-30T23:02:31.709Z,4.63
2019-05-30T23:05:01.196Z,4.37
2019-05-30T23:07:30.684Z,3.60
2019-05-30T23:10:00.155Z,4.07
2019-05-30T23:12:29.615Z,4.40
2019-05-30T23:14:59.081Z,4.50
2019-05-30T23:17:28.542Z,4.33
2019-05-30T23:19:57.979Z,4.33
2019-05-30T23:22:27.453Z,4.50
2019-05-30T23:24:57.533Z,4.50
2019-05-30T23:27:27.054Z,4.70
2019-05-30T23:29:56.506Z,4.00
2019-05-30T23:32:26.003Z,4.03
2019-05-30T23:34:56.396Z,4.80
2019-05-30T23:37:26.010Z,4.53
2019-05-30T23:39:55.548Z,4.13
2019-05-30T23:42:25.070Z,4.10
2019-05-30T23:44:55.437Z,4.70
2019-05-30T23:47:25.129Z,4.77
2019-05-30T23:49:55.955Z,12.60
2019-05-30T23:52:25.478Z,10.90
2019-05-30T23:54:56.025Z,4.93
2019-05-30T23:57:25.700Z,4.50
2019-05-30T23:59:55.201Z,4.83
